Погода Джейкобабадна неделю

Белуджистан, Пакистан

22 - 28 июля
  • 22июля
    Сегодня
    +31°
    +44°
    Практически безоблачно
    ВремяПогодаТемператураВлажностьДавлениеВетер, м/сВероятность осадков
    02:00Ясно и безоблачно+32°C53 %741 мм1.3 м/с2 %
    05:00Ясно и безоблачно+30°C59 %742 мм0.8 м/с2 %
    08:00Ясно и безоблачно+33°C52 %743 мм0.8 м/с2 %
    11:00Практически безоблачно+39°C36 %742 мм0.8 м/с2 %
    14:00Практически безоблачно+42°C29 %741 мм1.0 м/с2 %
    17:00Практически безоблачно+43°C29 %739 мм0.9 м/с3 %
    20:00Небольшая облачность+37°C34 %740 мм1.0 м/с2 %
    23:00Небольшая облачность+36°C53 %742 мм1.5 м/с1 %
  • 23июля
    Вторник
    +30°
    +44°
    Практически безоблачно
    ВремяПогодаТемператураВлажностьДавлениеВетер, м/сВероятность осадков
    02:00Облачно с прояснениями+33°C62 %741 мм1.5 м/с2 %
    05:00Ясно и безоблачно+32°C70 %741 мм1.0 м/с2 %
    08:00Ясно и безоблачно+34°C66 %742 мм0.8 м/с2 %
    11:00Ясно и безоблачно+39°C44 %742 мм1.0 м/с2 %
    14:00Практически безоблачно+43°C33 %740 мм1.1 м/с2 %
    17:00Ясно и безоблачно+44°C31 %738 мм1.2 м/с2 %
    20:00Ясно и безоблачно+36°C36 %739 мм1.3 м/с2 %
    23:00Ясно и безоблачно+35°C50 %740 мм1.5 м/с2 %
  • 24июля
    Среда
    +30°
    +44°
    Ясно и безоблачно
    ВремяПогодаТемператураВлажностьДавлениеВетер, м/сВероятность осадков
    02:00Ясно и безоблачно+33°C57 %739 мм1.5 м/с2 %
    05:00Ясно и безоблачно+31°C62 %738 мм1.2 м/с2 %
    08:00Ясно и безоблачно+33°C58 %739 мм0.9 м/с2 %
    11:00Ясно и безоблачно+37°C42 %739 мм1.0 м/с2 %
    14:00Ясно и безоблачно+42°C31 %737 мм1.1 м/с2 %
    17:00Ясно и безоблачно+44°C29 %735 мм1.1 м/с2 %
    20:00Ясно и безоблачно+37°C34 %736 мм1.1 м/с2 %
    23:00Ясно и безоблачно+35°C47 %737 мм1.4 м/с2 %
  • 25июля
    Четверг
    +30°
    +44°
    Практически безоблачно
    ВремяПогодаТемператураВлажностьДавлениеВетер, м/сВероятность осадков
    02:00Ясно и безоблачно+33°C55 %737 мм1.4 м/с2 %
    05:00Ясно и безоблачно+30°C65 %737 мм1.2 м/с2 %
    08:00Ясно и безоблачно+32°C63 %739 мм0.9 м/с2 %
    11:00Ясно и безоблачно+37°C44 %739 мм1.0 м/с2 %
    14:00Практически безоблачно+42°C31 %737 мм1.1 м/с2 %
    17:00Ясно и безоблачно+43°C29 %736 мм1.2 м/с5 %
    20:00Ясно и безоблачно+36°C35 %737 мм1.2 м/с9 %
    23:00Ясно и безоблачно+36°C44 %739 мм1.3 м/с2 %
  • 26июля
    Пятница
    +30°
    +44°
    Ясно и безоблачно
    ВремяПогодаТемператураВлажностьДавлениеВетер, м/сВероятность осадков
    02:00Ясно и безоблачно+33°C57 %739 мм1.4 м/с4 %
    05:00Ясно и безоблачно+31°C64 %739 мм1.1 м/с3 %
    08:00Ясно и безоблачно+33°C61 %740 мм0.8 м/с2 %
    11:00Ясно и безоблачно+38°C41 %740 мм0.9 м/с2 %
    14:00Ясно и безоблачно+42°C32 %739 мм1.1 м/с2 %
    17:00Ясно и безоблачно+43°C30 %738 мм1.0 м/с2 %
    20:00Ясно и безоблачно+36°C34 %738 мм1.2 м/с2 %
    23:00Ясно и безоблачно+35°C45 %740 мм1.4 м/с2 %
Мы используем cookies
Соглашаюсь